Time;durP1;ratioP1;P1;durP2;ratioP2;P2;SDS_P1;SDS_P2;PMS_P1;PMS_P2;Temp;Humidity;BMP_temperature;BMP_pressure;BME280_temperature;BME280_humidity;BME280_pressure;Samples;Min_cycle;Max_cycle;Signal;HPM_P1;HPM_P2
2022/07/16 00:02:41;;;;;;;;;6.80;5.60;;;;;24.14;33.33;101504.13;4996568;28;45270;-58
2022/07/16 00:05:07;;;;;;;;;4.25;3.75;;;;;24.18;33.68;101522.91;5028271;28;45342;-52
2022/07/16 00:07:33;;;;;;;;;4.20;4.20;;;;;24.26;34.23;101535.50;4997096;28;45365;-53
2022/07/16 00:09:58;;;;;;;;;4.75;4.75;;;;;24.29;34.02;101522.88;4996900;28;45350;-53
2022/07/16 00:12:25;;;;;;;;;3.00;1.50;;;;;24.26;33.91;101517.84;4996694;28;45908;-55
2022/07/16 00:14:50;;;;;;;;;3.80;3.20;;;;;24.31;33.76;101538.28;4996586;28;45471;-52
2022/07/16 00:17:16;;;;;;;;;2.25;2.25;;;;;24.26;33.70;101540.28;5012132;28;45401;-59
2022/07/16 00:19:41;;;;;;;;;3.25;2.00;;;;;24.26;34.16;101543.09;4996946;28;45345;-55
2022/07/16 00:22:07;;;;;;;;;3.00;3.00;;;;;23.95;34.25;101508.38;4996278;28;46941;-55
2022/07/16 00:24:32;;;;;;;;;3.00;2.75;;;;;24.09;34.42;101533.03;4996450;28;45377;-57
2022/07/16 00:26:58;;;;;;;;;4.75;4.00;;;;;24.10;34.86;101540.31;4996975;28;45333;-55
2022/07/16 00:29:23;;;;;;;;;5.25;3.50;;;;;24.08;34.41;101534.97;4995690;28;45481;-56
2022/07/16 00:31:49;;;;;;;;;3.00;3.00;;;;;23.87;34.97;101537.00;4996459;28;45550;-57
2022/07/16 00:34:15;;;;;;;;;3.00;3.00;;;;;23.80;34.86;101525.22;4996368;28;45651;-54
2022/07/16 00:36:40;;;;;;;;;4.50;3.50;;;;;23.92;34.86;101538.94;4996572;28;45347;-54
2022/07/16 00:39:07;;;;;;;;;2.00;2.00;;;;;23.96;35.00;101542.88;5011579;28;45361;-53
2022/07/16 00:41:32;;;;;;;;;4.40;3.20;;;;;23.88;34.92;101535.84;5027955;28;46590;-52
2022/07/16 00:44:06;;;;;;;;;2.50;2.50;;;;;23.96;34.95;101545.66;4996023;28;45502;-51
2022/07/16 00:46:32;;;;;;;;;2.00;2.00;;;;;23.67;34.94;101521.88;4996635;28;45357;-52
2022/07/16 00:48:58;;;;;;;;;3.00;3.00;;;;;23.94;35.44;101551.53;4995357;28;45529;-53
2022/07/16 00:51:24;;;;;;;;;2.50;2.00;;;;;23.73;35.27;101524.69;4995064;28;45776;-51
2022/07/16 00:53:49;;;;;;;;;4.00;3.00;;;;;23.75;35.48;101539.25;4995926;28;45410;-56
2022/07/16 00:56:15;;;;;;;;;3.25;3.25;;;;;23.78;35.45;101547.06;4996441;28;45386;-58
2022/07/16 00:58:42;;;;;;;;;3.25;2.00;;;;;23.77;35.14;101537.00;4996313;28;45378;-55
2022/07/16 01:01:08;;;;;;;;;3.00;3.00;;;;;23.65;35.39;101510.09;4988914;28;45865;-57
2022/07/16 01:03:33;;;;;;;;;6.80;5.00;;;;;23.86;35.10;101542.88;4991347;28;45298;-56
2022/07/16 01:05:59;;;;;;;;;4.50;3.00;;;;;23.76;35.31;101530.56;4988472;28;45433;-56
2022/07/16 01:08:25;;;;;;;;;3.00;3.00;;;;;23.77;35.40;101543.44;4995564;28;45534;-54
2022/07/16 01:10:50;;;;;;;;;3.00;3.00;;;;;23.66;35.27;101541.78;4994073;28;45390;-56
2022/07/16 01:13:16;;;;;;;;;3.00;2.25;;;;;23.52;35.73;101519.06;4989500;28;45473;-57
2022/07/16 01:15:41;;;;;;;;;4.00;3.00;;;;;23.64;35.58;101541.22;4977650;28;45346;-58
2022/07/16 01:18:07;;;;;;;;;2.00;2.00;;;;;23.57;35.32;101523.88;4994541;28;45382;-54
2022/07/16 01:20:32;;;;;;;;;5.00;2.25;;;;;23.78;35.83;101552.69;4993990;28;45527;-56
2022/07/16 01:22:58;;;;;;;;;3.00;3.00;;;;;23.77;35.48;101549.06;4995259;28;45412;-55
2022/07/16 01:25:23;;;;;;;;;3.50;2.75;;;;;23.65;35.40;101546.53;4977833;28;45349;-55
2022/07/16 01:27:49;;;;;;;;;3.50;3.50;;;;;23.55;36.02;101536.16;4994506;28;45429;-56
2022/07/16 01:30:14;;;;;;;;;2.75;2.75;;;;;23.62;35.86;101544.31;4995207;28;46923;-58
2022/07/16 01:32:40;;;;;;;;;3.00;2.00;;;;;23.54;36.00;101547.69;4995116;28;45412;-56
2022/07/16 01:35:06;;;;;;;;;4.75;2.75;;;;;23.37;36.28;101531.16;4995385;28;45393;-53
2022/07/16 01:37:31;;;;;;;;;4.60;3.20;;;;;23.46;35.90;101551.00;4994259;28;45441;-52
2022/07/16 01:39:57;;;;;;;;;6.00;3.25;;;;;23.43;36.36;101544.03;4993702;28;46427;-56
2022/07/16 01:42:22;;;;;;;;;4.00;4.00;;;;;23.50;35.98;101541.78;4994878;28;45394;-58
2022/07/16 01:44:48;;;;;;;;;5.50;5.00;;;;;23.47;35.66;101544.31;4977508;28;45399;-54
2022/07/16 01:47:13;;;;;;;;;4.25;3.25;;;;;23.51;35.84;101543.47;4995553;28;45291;-56
2022/07/16 01:49:39;;;;;;;;;4.50;4.00;;;;;23.50;36.26;101539.00;4994765;28;45888;-56
2022/07/16 01:52:12;;;;;;;;;4.50;3.25;;;;;23.51;35.83;101542.63;4995286;28;45379;-55
2022/07/16 01:54:43;;;;;;;;;3.00;3.00;;;;;23.46;36.05;101543.47;4995022;28;45331;-53
2022/07/16 01:57:08;;;;;;;;;3.40;3.40;;;;;23.46;36.28;101540.66;4994149;28;45446;-57
2022/07/16 01:59:33;;;;;;;;;4.50;4.50;;;;;23.26;36.30;101541.47;4994924;28;45547;-56
2022/07/16 02:01:59;;;;;;;;;3.50;2.50;;;;;23.11;36.67;101533.91;4994764;28;45320;-57
2022/07/16 02:04:24;;;;;;;;;4.75;4.75;;;;;23.18;36.44;101544.81;5027109;28;45396;-55
2022/07/16 02:06:50;;;;;;;;;4.50;3.75;;;;;23.03;36.65;101535.28;4995150;28;45252;-55
2022/07/16 02:09:15;;;;;;;;;2.00;2.00;;;;;23.10;36.68;101535.84;4994835;28;46409;-58
2022/07/16 02:11:41;;;;;;;;;6.75;5.25;;;;;23.17;36.47;101534.75;4995040;28;45302;-59
2022/07/16 02:14:06;;;;;;;;;5.00;5.00;;;;;23.04;36.51;101513.75;5030367;28;45370;-52
2022/07/16 02:16:32;;;;;;;;;6.25;5.25;;;;;22.97;36.63;101497.19;4998441;28;45290;-54
2022/07/16 02:18:57;;;;;;;;;7.75;6.75;;;;;23.23;36.25;101537.28;4997943;28;46636;-54
2022/07/16 02:21:23;;;;;;;;;7.25;6.00;;;;;23.20;36.55;101528.59;4998142;28;45283;-58
2022/07/16 02:23:48;;;;;;;;;5.75;5.75;;;;;23.10;36.69;101521.84;4998510;28;45240;-59
2022/07/16 02:26:13;;;;;;;;;4.25;4.25;;;;;23.13;37.07;101531.66;5013818;28;45385;-54
2022/07/16 02:28:39;;;;;;;;;3.25;3.25;;;;;23.20;36.84;101531.41;4997933;28;46472;-56
2022/07/16 02:31:04;;;;;;;;;7.00;6.00;;;;;23.01;36.45;101515.13;4983349;28;45884;-51
2022/07/16 02:33:30;;;;;;;;;5.50;5.00;;;;;23.14;36.77;101545.38;5018169;28;45291;-58
2022/07/16 02:35:55;;;;;;;;;6.00;6.00;;;;;23.03;36.88;101546.47;5050066;28;45607;-57
2022/07/16 02:38:21;;;;;;;;;5.25;4.50;;;;;22.97;37.14;101551.25;5017587;28;45473;-57
2022/07/16 02:40:46;;;;;;;;;5.00;4.25;;;;;22.90;36.93;101531.06;5016757;28;45299;-55
2022/07/16 02:43:12;;;;;;;;;3.25;3.25;;;;;22.87;37.09;101526.88;5044970;28;45416;-51
2022/07/16 02:45:39;;;;;;;;;4.50;4.50;;;;;22.93;37.29;101541.69;4996800;28;45469;-54
2022/07/16 02:48:05;;;;;;;;;4.20;3.00;;;;;22.65;37.36;101507.50;4998048;28;45400;-53
2022/07/16 02:50:30;;;;;;;;;2.60;2.60;;;;;22.80;37.32;101540.28;4996694;28;45485;-52
2022/07/16 02:52:56;;;;;;;;;5.25;4.00;;;;;22.68;37.28;101515.34;4998362;28;45427;-59
2022/07/16 02:55:21;;;;;;;;;6.00;5.50;;;;;22.87;37.09;101546.47;4998055;28;45507;-53
2022/07/16 02:57:47;;;;;;;;;3.25;3.25;;;;;22.94;37.35;101546.19;4997990;28;46719;-58
2022/07/16 03:00:14;;;;;;;;;4.00;4.00;;;;;22.67;37.25;101498.84;4996782;28;45329;-52
2022/07/16 03:02:40;;;;;;;;;4.00;4.00;;;;;22.90;37.38;101541.41;4980085;28;45355;-53
2022/07/16 03:05:05;;;;;;;;;2.75;2.25;;;;;22.87;37.24;101540.88;4998254;28;45548;-54
2022/07/16 03:07:31;;;;;;;;;4.25;2.75;;;;;22.73;37.42;101512.56;4996572;28;46528;-55
2022/07/16 03:09:56;;;;;;;;;3.25;3.25;;;;;22.77;37.75;101535.22;4997464;28;45220;-54
2022/07/16 03:12:22;;;;;;;;;4.75;4.75;;;;;22.58;37.28;101504.13;4980366;28;45235;-57
2022/07/16 03:14:47;;;;;;;;;3.50;2.50;;;;;22.87;37.16;101545.59;4997889;28;45208;-53
2022/07/16 03:17:13;;;;;;;;;4.75;4.00;;;;;22.67;37.35;101512.84;4997786;28;46718;-52
2022/07/16 03:19:39;;;;;;;;;5.00;5.00;;;;;22.83;37.39;101547.28;4997171;28;45279;-50
2022/07/16 03:22:04;;;;;;;;;4.40;4.00;;;;;22.71;37.64;101539.13;4996158;28;45494;-54
2022/07/16 03:24:30;;;;;;;;;5.75;3.25;;;;;22.61;37.76;101546.38;4995453;28;45306;-51
2022/07/16 03:26:56;;;;;;;;;5.50;3.00;;;;;22.56;38.04;101543.56;4997178;28;46708;-58
2022/07/16 03:29:21;;;;;;;;;3.00;3.00;;;;;22.45;37.84;101527.81;4997384;28;45355;-53
2022/07/16 03:31:47;;;;;;;;;4.25;3.00;;;;;22.47;38.01;101536.78;4989907;28;45420;-53
2022/07/16 03:34:12;;;;;;;;;4.00;4.00;;;;;22.42;38.28;101532.00;4996758;28;45330;-50
2022/07/16 03:36:38;;;;;;;;;3.50;3.00;;;;;22.17;38.38;101519.59;4993281;28;46319;-52
2022/07/16 03:39:04;;;;;;;;;4.00;4.00;;;;;22.39;38.14;101551.28;4997196;28;45346;-54
2022/07/16 03:41:31;;;;;;;;;4.40;3.80;;;;;22.08;38.23;101490.47;4997211;28;45322;-55
2022/07/16 03:43:58;;;;;;;;;5.60;5.40;;;;;22.28;38.00;101523.28;4997102;28;45761;-55
2022/07/16 03:46:23;;;;;;;;;5.00;5.00;;;;;22.51;38.13;101551.06;4997013;28;46460;-54
2022/07/16 03:48:49;;;;;;;;;2.75;2.25;;;;;22.38;38.08;101528.09;4997273;28;45350;-52
2022/07/16 03:51:14;;;;;;;;;4.50;4.00;;;;;22.58;37.87;101554.47;4995650;28;45449;-53
2022/07/16 03:53:40;;;;;;;;;9.75;6.75;;;;;22.58;37.79;101554.47;5028759;28;45675;-50
2022/07/16 03:56:06;;;;;;;;;5.50;4.75;;;;;22.38;37.96;101530.03;4996558;28;45998;-55
2022/07/16 03:58:31;;;;;;;;;4.60;4.40;;;;;22.54;37.90;101556.97;4996511;28;45481;-53
2022/07/16 04:00:57;;;;;;;;;4.50;4.50;;;;;22.53;38.02;101558.09;4996572;28;45365;-55
2022/07/16 04:03:23;;;;;;;;;4.75;4.75;;;;;22.47;37.83;101543.22;4996842;28;45327;-53
2022/07/16 04:05:48;;;;;;;;;5.40;5.40;;;;;22.45;38.05;101545.44;4996507;28;45653;-53
2022/07/16 04:08:14;;;;;;;;;5.75;4.50;;;;;22.42;38.29;101561.94;4996569;28;45382;-53
2022/07/16 04:10:39;;;;;;;;;4.50;4.50;;;;;22.42;38.28;101550.75;5028110;28;45517;-53
2022/07/16 04:13:05;;;;;;;;;5.75;3.25;;;;;22.18;38.43;101515.69;4996872;28;45276;-53
2022/07/16 04:15:30;;;;;;;;;6.50;5.50;;;;;22.10;38.31;101521.81;5028275;28;45633;-56
2022/07/16 04:17:56;;;;;;;;;5.00;4.25;;;;;22.27;38.46;101560.75;4996428;28;45311;-56
2022/07/16 04:20:21;;;;;;;;;4.00;4.00;;;;;22.22;38.85;101566.31;4995107;28;45379;-55
2022/07/16 04:22:46;;;;;;;;;4.25;4.25;;;;;22.24;38.57;101571.63;5028253;28;45325;-52
2022/07/16 04:25:15;;;;;;;;;5.00;4.00;;;;;22.29;38.75;101571.63;4996305;28;46382;-55
2022/07/16 04:27:43;;;;;;;;;3.60;3.20;;;;;22.31;38.40;101575.84;4996115;28;45409;-54
2022/07/16 04:30:09;;;;;;;;;3.00;3.00;;;;;22.15;38.56;101537.75;4996639;28;45316;-58
2022/07/16 04:32:35;;;;;;;;;4.00;2.25;;;;;22.28;38.67;101575.56;4996560;28;45271;-52
2022/07/16 04:35:01;;;;;;;;;3.60;3.60;;;;;21.94;38.26;101513.31;5011191;28;45414;-51
2022/07/16 04:37:26;;;;;;;;;3.00;3.00;;;;;22.34;38.39;101575.31;4996136;28;45367;-52
2022/07/16 04:39:52;;;;;;;;;3.00;3.00;;;;;22.38;38.57;101571.97;5027982;28;45721;-53
2022/07/16 04:42:17;;;;;;;;;4.50;3.00;;;;;22.13;38.79;101548.34;4995836;28;45362;-55
2022/07/16 04:44:43;;;;;;;;;4.00;3.50;;;;;22.10;39.01;101571.25;4995644;28;46439;-56
2022/07/16 04:47:08;;;;;;;;;4.75;4.75;;;;;22.03;38.72;101544.41;4995916;28;45461;-51
2022/07/16 04:49:34;;;;;;;;;4.25;4.25;;;;;21.93;39.21;101556.34;4996267;28;45380;-55
2022/07/16 04:51:59;;;;;;;;;3.00;3.00;;;;;21.97;39.21;101550.22;4995643;28;45475;-49
2022/07/16 04:54:25;;;;;;;;;4.00;4.00;;;;;21.96;39.18;101560.56;4965181;28;46385;-53
2022/07/16 04:56:50;;;;;;;;;4.00;4.00;;;;;22.02;39.04;101583.78;5015661;28;45667;-52
2022/07/16 04:59:16;;;;;;;;;4.50;4.00;;;;;21.94;39.58;101585.16;5015232;28;45471;-57
2022/07/16 05:01:41;;;;;;;;;3.00;3.00;;;;;21.90;39.93;101592.38;5015648;28;45432;-52
2022/07/16 05:04:07;;;;;;;;;4.00;4.00;;;;;21.89;39.75;101594.31;5030737;28;46852;-50
2022/07/16 05:06:32;;;;;;;;;3.00;3.00;;;;;21.54;39.87;101548.22;5015617;28;45726;-53
2022/07/16 05:08:57;;;;;;;;;3.25;3.25;;;;;21.74;40.25;101585.81;5047328;28;45390;-55
2022/07/16 05:11:23;;;;;;;;;4.25;4.00;;;;;21.76;40.04;101584.44;5016299;28;45373;-50
2022/07/16 05:13:52;;;;;;;;;4.75;4.75;;;;;21.88;40.01;101587.03;4997978;28;46524;-54
2022/07/16 05:16:17;;;;;;;;;3.80;3.80;;;;;21.99;39.82;101589.91;5015319;28;45143;-53
2022/07/16 05:18:44;;;;;;;;;4.75;4.75;;;;;22.09;39.71;101580.75;5015754;28;45213;-55
2022/07/16 05:21:09;;;;;;;;;5.00;5.00;;;;;22.07;39.97;101587.47;5015807;28;45370;-53
2022/07/16 05:23:35;;;;;;;;;4.50;3.25;;;;;21.96;40.14;101588.50;5015471;28;46407;-51
2022/07/16 05:26:00;;;;;;;;;4.25;4.25;;;;;21.90;40.29;101578.41;5015104;28;45328;-51
2022/07/16 05:28:26;;;;;;;;;6.50;5.00;;;;;21.85;40.05;101550.41;5015425;28;45672;-52
2022/07/16 05:30:51;;;;;;;;;4.50;4.50;;;;;22.04;39.62;101564.81;5015822;28;45284;-53
2022/07/16 05:33:17;;;;;;;;;4.00;2.50;;;;;21.86;39.50;101522.22;5014842;28;46379;-57
2022/07/16 05:35:42;;;;;;;;;3.00;2.00;;;;;22.18;39.76;101567.94;5047551;28;45292;-52
2022/07/16 05:38:08;;;;;;;;;3.75;3.75;;;;;22.12;39.63;101561.50;5015335;28;45341;-52
2022/07/16 05:40:33;;;;;;;;;5.75;5.00;;;;;22.18;39.52;101570.75;5014270;28;45362;-50
2022/07/16 05:42:59;;;;;;;;;6.50;5.00;;;;;22.18;39.60;101576.34;5014907;28;46336;-54
2022/07/16 05:45:24;;;;;;;;;4.00;4.00;;;;;22.30;39.54;101587.31;5013000;28;45279;-54
2022/07/16 05:47:50;;;;;;;;;6.00;5.00;;;;;22.07;39.60;101550.28;4997263;28;45458;-56
2022/07/16 05:50:15;;;;;;;;;5.00;5.00;;;;;22.23;39.77;101587.56;4998923;28;45344;-52
2022/07/16 05:52:41;;;;;;;;;6.75;5.50;;;;;22.24;39.68;101594.81;4998556;28;46494;-53
2022/07/16 05:55:07;;;;;;;;;5.00;5.00;;;;;22.26;40.38;101600.16;4994417;28;45312;-54
2022/07/16 05:57:32;;;;;;;;;7.20;6.00;;;;;22.25;40.00;101606.88;5011031;28;45325;-51
2022/07/16 05:59:58;;;;;;;;;5.50;5.50;;;;;22.02;40.11;101576.25;5050717;28;45567;-54
2022/07/16 06:02:23;;;;;;;;;6.50;5.50;;;;;22.21;40.14;101600.97;5017650;28;45673;-53
2022/07/16 06:04:49;;;;;;;;;6.00;5.00;;;;;22.22;40.28;101605.44;5018106;28;45505;-49
2022/07/16 06:07:15;;;;;;;;;5.00;4.00;;;;;22.23;40.05;101612.72;5018995;28;45346;-51
2022/07/16 06:09:40;;;;;;;;;6.00;4.80;;;;;22.27;40.23;101613.88;5033960;28;45463;-53
2022/07/16 06:12:06;;;;;;;;;7.00;6.00;;;;;22.25;40.22;101616.06;5018349;28;46300;-53
2022/07/16 06:14:31;;;;;;;;;5.75;5.00;;;;;22.29;40.00;101625.63;5018305;28;45410;-56
2022/07/16 06:16:57;;;;;;;;;6.00;4.75;;;;;22.27;40.41;101615.81;5017905;28;45358;-55
2022/07/16 06:19:22;;;;;;;;;5.75;4.25;;;;;22.10;40.27;101591.69;5018612;28;45459;-51
2022/07/16 06:21:49;;;;;;;;;4.50;4.50;;;;;22.23;40.06;101620.25;5018186;28;45376;-50
2022/07/16 06:24:14;;;;;;;;;4.20;4.20;;;;;22.28;39.97;101629.53;5018279;28;45237;-50
2022/07/16 06:26:46;;;;;;;;;7.50;5.25;;;;;22.21;40.00;101606.56;5018222;28;45353;-53
2022/07/16 06:29:15;;;;;;;;;4.60;3.40;;;;;22.28;39.69;101600.72;5018152;28;45397;-55
2022/07/16 06:31:41;;;;;;;;;4.60;4.20;;;;;22.42;39.51;101629.03;5017845;28;46492;-51
2022/07/16 06:34:07;;;;;;;;;6.20;6.20;;;;;22.42;39.81;101629.88;5017751;28;45421;-54
2022/07/16 06:36:32;;;;;;;;;5.00;5.00;;;;;22.41;39.80;101649.75;5018200;28;45426;-59
2022/07/16 06:38:58;;;;;;;;;4.50;4.50;;;;;22.44;39.78;101643.59;5017921;28;45320;-55
2022/07/16 06:41:24;;;;;;;;;5.75;4.75;;;;;22.42;39.68;101646.66;5016248;28;45842;-60
2022/07/16 06:43:49;;;;;;;;;5.25;5.00;;;;;22.49;39.49;101657.59;5016095;28;45429;-56
2022/07/16 06:46:15;;;;;;;;;4.50;4.50;;;;;22.52;39.47;101659.88;4998136;28;45443;-60
2022/07/16 06:48:40;;;;;;;;;5.50;5.50;;;;;22.47;39.45;101652.28;4998109;28;45593;-56
2022/07/16 06:51:06;;;;;;;;;6.00;5.00;;;;;22.51;39.46;101651.75;4997875;28;45503;-56
2022/07/16 06:53:32;;;;;;;;;4.75;4.75;;;;;22.53;39.01;101660.75;4997755;28;45365;-57
2022/07/16 06:55:57;;;;;;;;;7.50;5.25;;;;;22.53;39.14;101666.34;4996329;28;45605;-53
2022/07/16 06:58:23;;;;;;;;;8.00;5.00;;;;;22.57;38.94;101662.72;4996552;28;45409;-61
2022/07/16 07:00:48;;;;;;;;;6.75;4.50;;;;;22.61;39.26;101666.66;4997705;28;45720;-59
2022/07/16 07:03:14;;;;;;;;;4.00;4.00;;;;;22.44;39.21;101638.00;4997624;28;45344;-55
2022/07/16 07:05:39;;;;;;;;;5.75;4.25;;;;;22.54;39.01;101659.63;4997399;28;45356;-58
2022/07/16 07:08:04;;;;;;;;;8.50;4.25;;;;;22.47;39.33;101668.25;4996778;28;45479;-52
2022/07/16 07:10:30;;;;;;;;;8.25;7.00;;;;;22.50;39.24;101664.06;4997550;28;45432;-56
2022/07/16 07:12:56;;;;;;;;;10.00;7.25;;;;;22.61;39.10;101671.41;4979883;28;45405;-55
2022/07/16 07:15:21;;;;;;;;;4.00;4.00;;;;;22.66;39.01;101667.78;4998041;28;45318;-55
2022/07/16 07:17:47;;;;;;;;;3.50;3.50;;;;;22.53;38.41;101642.00;4997746;28;45429;-56
2022/07/16 07:20:12;;;;;;;;;6.00;5.00;;;;;22.77;38.39;101668.72;4997726;28;46239;-50
2022/07/16 07:22:38;;;;;;;;;5.00;5.00;;;;;22.66;38.59;101637.88;4997420;28;45338;-58
2022/07/16 07:25:04;;;;;;;;;4.00;4.00;;;;;22.91;38.53;101660.63;4963963;28;45940;-53
2022/07/16 07:27:29;;;;;;;;;7.75;5.75;;;;;22.83;38.08;101640.47;4997998;28;45386;-52
2022/07/16 07:29:55;;;;;;;;;5.00;4.00;;;;;23.08;37.74;101666.00;4995876;28;45568;-59
2022/07/16 07:32:20;;;;;;;;;6.25;5.75;;;;;23.09;37.45;101676.09;4997225;28;45428;-49
2022/07/16 07:34:46;;;;;;;;;4.75;4.75;;;;;23.09;37.58;101676.94;4997399;28;45251;-54
2022/07/16 07:37:11;;;;;;;;;3.00;3.00;;;;;23.17;37.68;101688.72;4998019;28;45299;-54
2022/07/16 07:39:37;;;;;;;;;5.75;4.75;;;;;23.02;38.05;101663.19;4996826;28;45380;-55
2022/07/16 07:42:03;;;;;;;;;5.00;4.00;;;;;23.14;37.73;101668.56;4997276;28;45337;-56
2022/07/16 07:44:29;;;;;;;;;4.75;4.75;;;;;23.24;37.43;101673.34;5028952;28;45420;-52
2022/07/16 07:46:54;;;;;;;;;4.00;4.00;;;;;23.33;37.23;101679.31;4997595;28;45425;-51
2022/07/16 07:49:20;;;;;;;;;4.25;4.25;;;;;23.37;37.53;101676.78;4997055;28;45599;-52
2022/07/16 07:51:45;;;;;;;;;5.00;5.00;;;;;23.38;37.04;101667.25;4995956;28;45800;-54
2022/07/16 07:54:11;;;;;;;;;4.50;4.50;;;;;23.29;37.34;101655.72;4997207;28;45808;-53
2022/07/16 07:56:36;;;;;;;;;3.25;3.25;;;;;23.44;37.51;101671.75;4997144;28;45410;-54
2022/07/16 07:59:02;;;;;;;;;5.00;5.00;;;;;23.51;37.35;101679.88;4996910;28;46197;-53
2022/07/16 08:01:27;;;;;;;;;5.00;5.00;;;;;23.34;36.93;101655.78;4996775;28;45300;-51
2022/07/16 08:03:53;;;;;;;;;5.50;5.00;;;;;23.55;36.95;101679.03;4991995;28;45699;-55
2022/07/16 08:06:18;;;;;;;;;3.50;3.50;;;;;23.61;36.96;101681.84;5018588;28;45342;-51
2022/07/16 08:08:44;;;;;;;;;4.00;4.00;;;;;23.65;37.37;101683.00;5016542;28;45687;-50
2022/07/16 08:11:09;;;;;;;;;7.25;6.75;;;;;23.65;36.71;101681.00;5015572;28;45389;-55
2022/07/16 08:13:35;;;;;;;;;5.25;4.75;;;;;23.53;36.54;101666.47;5016373;28;45375;-50
2022/07/16 08:16:00;;;;;;;;;4.00;4.00;;;;;23.59;36.86;101673.75;5016454;28;45287;-53
2022/07/16 08:18:26;;;;;;;;;4.50;4.50;;;;;23.47;36.57;101657.19;5016101;28;46283;-51
2022/07/16 08:20:51;;;;;;;;;5.50;4.00;;;;;23.65;36.87;101683.81;5016094;28;45299;-55
2022/07/16 08:25:44;;;;;;;;;7.75;5.00;;;;;23.69;36.65;101690.56;5016153;28;45550;-53
2022/07/16 08:26:02;;;;;;;;;5.20;5.20;;;;;23.51;35.99;101665.88;4993886;28;45509;-52
2022/07/16 08:28:28;;;;;;;;;4.75;3.50;;;;;23.68;36.70;101686.06;5048043;28;46444;-53
2022/07/16 08:30:53;;;;;;;;;5.00;5.00;;;;;23.77;36.32;101677.97;5016335;28;45357;-55
2022/07/16 08:33:19;;;;;;;;;5.00;3.75;;;;;23.89;36.64;101685.22;5048079;28;45428;-56
2022/07/16 08:35:45;;;;;;;;;5.25;4.75;;;;;23.98;36.58;101682.72;5031817;28;45567;-53
2022/07/16 08:38:10;;;;;;;;;3.40;3.40;;;;;23.99;36.01;101661.97;5031585;28;46720;-57
2022/07/16 08:40:36;;;;;;;;;5.00;5.00;;;;;24.14;35.82;101666.75;5000069;28;45739;-55
2022/07/16 08:43:01;;;;;;;;;3.50;3.50;;;;;24.18;36.17;101679.94;5018101;28;45164;-54
2022/07/16 08:45:27;;;;;;;;;3.25;3.25;;;;;24.20;35.51;101679.66;5015826;28;45464;-52
2022/07/16 08:47:53;;;;;;;;;4.00;3.00;;;;;24.19;35.53;101675.19;5047872;28;46409;-54
2022/07/16 08:50:19;;;;;;;;;4.00;4.00;;;;;24.31;34.73;101692.56;5015602;28;45284;-55
2022/07/16 08:52:50;;;;;;;;;4.00;4.00;;;;;24.23;35.55;101688.34;5015827;28;45335;-53
2022/07/16 08:55:16;;;;;;;;;4.00;4.00;;;;;24.29;35.17;101691.16;5034922;28;45440;-54
2022/07/16 08:57:41;;;;;;;;;2.75;2.75;;;;;24.38;35.23;101697.84;5048530;28;45410;-53
2022/07/16 09:00:10;;;;;;;;;3.50;3.50;;;;;24.41;35.28;101688.03;5015602;28;45299;-54
2022/07/16 09:02:36;;;;;;;;;4.00;4.00;;;;;24.28;34.73;101667.03;5046891;28;45381;-53
2022/07/16 09:05:02;;;;;;;;;5.50;4.25;;;;;24.46;35.16;101688.88;5014786;28;45599;-52
2022/07/16 09:07:28;;;;;;;;;5.20;5.00;;;;;24.34;35.27;101661.13;5035030;28;46073;-54
2022/07/16 09:09:53;;;;;;;;;3.75;3.00;;;;;24.54;34.55;101686.63;5034831;28;45309;-54
2022/07/16 09:12:39;;;;;;;;;4.00;3.00;;;;;24.43;34.74;101660.56;5035757;28;45384;-52
2022/07/16 09:15:24;;;;;;;;;3.20;3.20;;;;;24.66;34.51;101695.56;5034467;28;45697;-52
2022/07/16 09:18:15;;;;;;;;;4.00;4.00;;;;;24.68;34.07;101704.53;5027888;28;46497;-50
2022/07/16 09:21:10;;;;;;;;;6.60;5.00;;;;;24.72;34.97;101702.84;5013935;28;45426;-50
2022/07/16 09:23:37;;;;;;;;;5.00;5.00;;;;;24.73;34.67;101696.09;4994017;28;45593;-54
2022/07/16 09:26:07;;;;;;;;;5.60;3.40;;;;;24.80;34.57;101687.41;5018491;28;45482;-57
2022/07/16 09:28:47;;;;;;;;;3.40;3.20;;;;;24.83;33.96;101684.03;5032701;27;45784;-50
2022/07/16 09:31:34;;;;;;;;;4.20;4.20;;;;;24.85;34.36;101684.59;5012791;28;45520;-53
2022/07/16 09:34:04;;;;;;;;;5.00;5.00;;;;;24.95;34.11;101692.13;5049288;28;45362;-52
2022/07/16 09:36:30;;;;;;;;;5.00;4.20;;;;;25.01;33.68;101693.78;5018118;28;45437;-56
2022/07/16 09:38:55;;;;;;;;;3.75;3.00;;;;;25.06;33.70;101686.47;5015444;28;47170;-55
2022/07/16 09:41:21;;;;;;;;;5.00;5.00;;;;;25.09;33.01;101685.88;5008873;28;45536;-53
2022/07/16 09:43:47;;;;;;;;;4.00;4.00;;;;;25.00;33.29;101666.84;5032889;28;45478;-55
2022/07/16 09:46:22;;;;;;;;;5.00;5.00;;;;;25.11;33.12;101681.66;5013550;28;45291;-51
2022/07/16 09:48:48;;;;;;;;;4.00;3.00;;;;;25.20;32.98;101681.06;5031547;28;45740;-53
2022/07/16 09:51:27;;;;;;;;;3.25;3.25;;;;;25.25;32.58;101681.88;5013418;28;45385;-55
2022/07/16 09:53:54;;;;;;;;;3.00;3.00;;;;;25.27;32.84;101684.38;5002617;28;45915;-56
2022/07/16 09:56:24;;;;;;;;;3.20;3.20;;;;;25.28;32.23;101688.88;5037340;28;45410;-55
2022/07/16 09:58:51;;;;;;;;;4.00;3.00;;;;;25.27;31.94;101687.19;5070723;28;45618;-51
2022/07/16 10:01:16;;;;;;;;;3.20;3.20;;;;;25.25;32.25;101690.31;5038097;28;45361;-52
2022/07/16 10:03:43;;;;;;;;;4.75;3.75;;;;;25.35;31.76;101700.63;5037348;28;45406;-54
2022/07/16 10:06:09;;;;;;;;;3.60;3.60;;;;;25.40;31.90;101699.78;5035641;28;45378;-52
2022/07/16 10:08:34;;;;;;;;;4.50;4.50;;;;;25.45;32.60;101705.34;5036324;28;45803;-50
2022/07/16 10:11:00;;;;;;;;;4.00;4.00;;;;;25.45;31.33;101688.47;5037968;28;45482;-54
2022/07/16 10:13:26;;;;;;;;;7.25;5.00;;;;;25.42;32.35;101694.69;5038295;28;45810;-54
2022/07/16 10:15:52;;;;;;;;;5.40;5.40;;;;;25.45;31.94;101702.53;5038402;28;45365;-56
2022/07/16 10:18:29;;;;;;;;;5.50;4.75;;;;;25.52;31.79;101700.28;5036418;28;45770;-52
2022/07/16 10:21:17;;;;;;;;;3.20;3.20;;;;;25.48;31.73;101704.78;5037729;28;45232;-57
2022/07/16 10:23:45;;;;;;;;;3.40;3.40;;;;;25.48;31.62;101701.97;5070661;28;45509;-52
2022/07/16 10:26:15;;;;;;;;;4.20;4.20;;;;;25.36;31.47;101673.38;5036928;28;45453;-50
2022/07/16 10:28:52;;;;;;;;;3.00;3.00;;;;;25.59;31.62;101699.97;5037936;28;46684;-53
2022/07/16 10:31:33;;;;;;;;;4.00;4.00;;;;;25.65;31.44;101700.75;5023208;28;45612;-55
2022/07/16 10:34:14;;;;;;;;;5.00;5.00;;;;;25.68;31.35;101697.38;5006961;28;45478;-52
2022/07/16 10:36:57;;;;;;;;;4.00;4.00;;;;;25.75;31.14;101683.81;5018367;28;45619;-49
2022/07/16 10:39:24;;;;;;;;;4.20;4.20;;;;;25.80;31.26;101678.16;5017702;28;45759;-55
2022/07/16 10:41:58;;;;;;;;;4.60;3.40;;;;;25.84;31.06;101687.66;5040682;28;45509;-55
2022/07/16 10:44:26;;;;;;;;;5.00;5.00;;;;;25.85;30.85;101680.94;5033736;28;45389;-55
2022/07/16 10:46:58;;;;;;;;;6.00;4.20;;;;;25.91;31.21;101687.34;5051601;28;45457;-54
2022/07/16 10:49:28;;;;;;;;;5.40;5.40;;;;;25.75;30.85;101647.28;5015799;28;47290;-52
2022/07/16 10:51:57;;;;;;;;;4.00;4.00;;;;;25.89;31.52;101660.66;5015491;28;45427;-60
2022/07/16 10:54:24;;;;;;;;;5.00;5.00;;;;;25.91;31.29;101655.56;5049900;28;45423;-55
2022/07/16 10:56:50;;;;;;;;;4.20;4.20;;;;;26.14;30.84;101684.06;5016479;28;45414;-59
2022/07/16 10:59:30;;;;;;;;;5.80;5.80;;;;;26.18;31.47;101687.94;5017373;28;46431;-56
2022/07/16 11:02:00;;;;;;;;;7.00;7.00;;;;;26.23;31.16;101685.13;5046766;28;45343;-56
2022/07/16 11:04:39;;;;;;;;;4.40;4.40;;;;;26.29;30.85;101683.13;5033101;28;45429;-54
2022/07/16 11:07:14;;;;;;;;;7.00;4.60;;;;;26.34;30.42;101692.34;5047574;28;45517;-52
2022/07/16 11:09:43;;;;;;;;;5.40;4.60;;;;;26.45;30.54;101686.59;5017509;28;45744;-58
2022/07/16 11:12:14;;;;;;;;;3.20;3.20;;;;;26.42;30.76;101682.41;5049307;28;45358;-59
2022/07/16 11:14:40;;;;;;;;;6.40;4.80;;;;;26.47;30.69;101684.34;5033056;28;45307;-55
2022/07/16 11:17:06;;;;;;;;;8.20;6.00;;;;;26.47;30.81;101675.88;5016256;28;45366;-53
2022/07/16 11:19:39;;;;;;;;;4.75;4.75;;;;;26.22;30.42;101613.13;5032809;28;45529;-60
2022/07/16 11:22:04;;;;;;;;;1.80;1.80;;;;;26.57;30.14;101660.88;4985193;28;45504;-56
2022/07/16 11:24:30;;;;;;;;;4.75;4.75;;;;;26.64;30.12;101664.16;5018216;28;45507;-59